Time;durP1;ratioP1;P1;durP2;ratioP2;P2;SDS_P1;SDS_P2;PMS_P1;PMS_P2;Temp;Humidity;BMP_temperature;BMP_pressure;BME280_temperature;BME280_humidity;BME280_pressure;Samples;Min_cycle;Max_cycle;Signal;HPM_P1;HPM_P2
2022/09/27 00:01:15;;;;;;;;;;;13.00;65.50;;;8.95;93.28;94131.31;4975486;28;19909;-49
2022/09/27 00:03:47;;;;;;;;;;;13.00;65.60;;;8.91;92.99;94127.66;4980581;28;19949;-49
2022/09/27 00:06:27;;;;;;;;;;;13.00;65.90;;;8.91;93.23;94120.47;4972941;28;19921;-48
2022/09/27 00:08:54;;;;;;;;;;;13.00;66.20;;;8.92;93.94;94124.69;4976868;28;19909;-50
2022/09/27 00:11:35;;;;;;;;;;;13.00;66.30;;;8.88;94.37;94110.44;4991134;28;19992;-50
2022/09/27 00:14:10;;;;;;;;;;;13.00;66.50;;;8.87;93.49;94116.81;4956561;28;19918;-48
2022/09/27 00:16:39;;;;;;;;;;;12.90;66.80;;;8.89;93.27;94119.97;4975505;28;19953;-50
2022/09/27 00:19:21;;;;;;;;;;;13.00;67.00;;;8.91;93.45;94117.03;4992538;28;20395;-49
2022/09/27 00:21:49;;;;;;;;;;;12.90;67.10;;;8.88;94.13;94118.41;4978213;28;27064;-52
2022/09/27 00:24:19;;;;;;;;;;;12.90;67.30;;;8.88;94.12;94120.25;4974708;28;19924;-50
2022/09/27 00:26:47;;;;;;;;;;;12.90;67.30;;;8.86;94.44;94112.56;4978478;28;19963;-48
2022/09/27 00:29:18;;;;;;;;;;;12.90;67.40;;;8.86;94.74;94109.13;4962008;28;19936;-49
2022/09/27 00:31:45;;;;;;;;;;;12.90;67.40;;;8.85;94.11;94115.53;4981206;28;19914;-47
2022/09/27 00:34:24;;;;;;;;;;;12.90;67.50;;;8.88;93.65;94115.75;4971004;28;19914;-46
2022/09/27 00:36:51;;;;;;;;;;;12.90;67.60;;;8.89;94.30;94112.00;4984035;28;19935;-49
2022/09/27 00:39:18;;;;;;;;;;;12.90;67.80;;;8.92;93.94;94100.00;4951054;28;20369;-48
2022/09/27 00:41:44;;;;;;;;;;;12.90;67.90;;;8.91;94.53;94104.53;4971865;28;20375;-47
2022/09/27 00:44:32;;;;;;;;;;;13.00;68.00;;;8.92;94.56;94105.31;4974985;28;19913;-45
2022/09/27 00:47:16;;;;;;;;;;;13.00;68.00;;;8.95;93.30;94108.19;4973089;28;19917;-46
2022/09/27 00:50:00;;;;;;;;;;;13.00;67.90;;;8.98;93.17;94099.63;4972246;28;20395;-47
2022/09/27 00:52:40;;;;;;;;;;;13.00;68.10;;;8.99;93.52;94093.28;4954675;28;20007;-46
2022/09/27 00:55:19;;;;;;;;;;;13.10;68.10;;;8.98;93.29;94091.66;4972565;28;19917;-45
2022/09/27 00:57:48;;;;;;;;;;;13.10;68.30;;;8.99;93.18;94101.22;4953342;28;20486;-47
2022/09/27 01:00:15;;;;;;;;;;;13.10;68.30;;;9.03;93.08;94098.78;4939308;28;20269;-48
2022/09/27 01:02:48;;;;;;;;;;;13.20;68.30;;;9.04;93.42;94103.78;4959630;28;19971;-47
2022/09/27 01:05:21;;;;;;;;;;;13.20;68.30;;;9.04;93.77;94092.38;4964429;28;19916;-46
2022/09/27 01:07:47;;;;;;;;;;;13.20;68.10;;;9.06;93.90;94100.03;4955572;28;19910;-47
2022/09/27 01:10:17;;;;;;;;;;;13.20;68.00;;;9.02;93.07;94102.50;4982869;28;19929;-46
2022/09/27 01:13:26;;;;;;;;;;;13.20;68.00;;;9.08;93.59;94095.25;4954726;28;19914;-47
2022/09/27 01:16:18;;;;;;;;;;;13.30;68.20;;;9.10;93.42;94095.75;4970915;28;20447;-49
2022/09/27 01:19:30;;;;;;;;;;;13.20;68.00;;;9.08;93.28;94089.94;4991150;28;19958;-46
2022/09/27 01:22:48;;;;;;;;;;;13.30;68.00;;;9.10;93.10;94114.34;4989964;28;19931;-48
2022/09/27 01:26:07;;;;;;;;;;;13.30;68.10;;;9.11;92.83;94094.66;4914095;28;19910;-46
2022/09/27 01:28:39;;;;;;;;;;;13.30;68.00;;;9.11;92.60;94089.34;4990917;28;19917;-48
2022/09/27 01:31:41;;;;;;;;;;;13.30;68.10;;;9.12;92.73;94096.22;4971871;28;19914;-46
2022/09/27 01:34:31;;;;;;;;;;;13.30;68.10;;;9.12;92.20;94090.91;4989446;28;20291;-48
2022/09/27 01:37:08;;;;;;;;;;;13.30;68.10;;;9.15;91.69;94093.00;4976021;28;19972;-47
2022/09/27 01:40:12;;;;;;;;;;;13.40;68.10;;;9.19;91.58;94104.63;4974990;28;19914;-46
2022/09/27 01:43:01;;;;;;;;;;;13.40;68.10;;;9.20;90.56;94092.91;4980082;28;20350;-48
2022/09/27 01:46:02;;;;;;;;;;;13.40;68.00;;;9.23;91.11;94092.34;4955041;28;19910;-45
2022/09/27 01:48:42;;;;;;;;;;;13.40;68.00;;;9.22;90.48;94088.13;4987795;28;19909;-48
2022/09/27 01:51:43;;;;;;;;;;;13.40;67.90;;;9.24;89.57;94091.25;4972827;28;19909;-46
2022/09/27 01:54:17;;;;;;;;;;;13.40;67.90;;;9.27;90.21;94088.00;4948689;28;19962;-46
2022/09/27 01:56:52;;;;;;;;;;;13.40;67.90;;;9.29;89.86;94093.03;4970966;28;19955;-46
2022/09/27 01:59:36;;;;;;;;;;;13.40;67.90;;;9.29;90.47;94088.50;4974418;28;19909;-47
2022/09/27 02:02:11;;;;;;;;;;;13.50;67.80;;;9.32;91.94;94106.53;4940374;28;19917;-46
2022/09/27 02:04:56;;;;;;;;;;;13.50;67.70;;;9.21;92.60;94100.63;4977329;28;20296;-46
2022/09/27 02:07:47;;;;;;;;;;;13.40;67.60;;;9.12;93.83;94097.03;4957843;28;20341;-47
2022/09/27 02:10:39;;;;;;;;;;;13.30;67.60;;;9.04;94.99;94090.50;4967365;28;19924;-46
2022/09/27 02:13:31;;;;;;;;;;;13.30;67.70;;;8.91;96.43;94109.06;4977252;28;20008;-45
2022/09/27 02:16:19;;;;;;;;;;;13.20;67.90;;;8.85;97.23;94108.34;4947681;28;19909;-52
2022/09/27 02:19:46;;;;;;;;;;;13.10;68.00;;;8.80;98.24;94119.03;4977337;28;19909;-47
2022/09/27 02:22:46;;;;;;;;;;;13.10;68.20;;;8.71;99.07;94118.09;4941855;28;19963;-46
2022/09/27 02:25:41;;;;;;;;;;;13.00;68.60;;;8.72;99.86;94119.72;4977264;28;20056;-46
2022/09/27 02:28:56;;;;;;;;;;;12.90;68.80;;;8.67;99.64;94119.78;4991469;23;19929;-51
2022/09/27 02:31:22;;;;;;;;;;;12.90;68.80;;;8.66;99.98;94116.34;4992893;28;19914;-48
2022/09/27 02:34:12;;;;;;;;;;;12.90;68.90;;;8.71;100.00;94110.16;4990763;28;20429;-49
2022/09/27 02:36:38;;;;;;;;;;;12.90;69.00;;;8.64;100.00;94115.81;4979605;28;20451;-50
2022/09/27 02:39:05;;;;;;;;;;;12.80;69.00;;;8.60;100.00;94112.16;4958549;28;19910;-46
2022/09/27 02:41:30;;;;;;;;;;;12.80;69.10;;;8.56;100.00;94116.47;4957688;28;19996;-45
2022/09/27 02:44:06;;;;;;;;;;;12.80;69.20;;;8.57;100.00;94118.84;4973582;28;20431;-53
2022/09/27 02:47:09;;;;;;;;;;;12.80;69.20;;;8.56;100.00;94113.81;4972889;28;19909;-48
2022/09/27 02:50:15;;;;;;;;;;;12.80;69.30;;;8.53;100.00;94130.31;4974887;28;20008;-48
2022/09/27 02:53:12;;;;;;;;;;;12.80;69.70;;;8.56;100.00;94137.72;4945804;28;19917;-45
2022/09/27 02:56:13;;;;;;;;;;;12.70;69.70;;;8.51;100.00;94135.13;4963935;28;19921;-48
2022/09/27 02:59:36;;;;;;;;;;;12.80;69.90;;;8.58;100.00;94133.69;4957667;28;20327;-47
2022/09/27 03:02:37;;;;;;;;;;;12.80;70.00;;;8.55;100.00;94139.59;4947610;28;19913;-49
2022/09/27 03:05:16;;;;;;;;;;;12.70;69.90;;;8.54;100.00;94139.84;4959772;28;19914;-45
2022/09/27 03:07:43;;;;;;;;;;;12.80;70.00;;;8.55;100.00;94144.06;4962235;28;19910;-46
2022/09/27 03:10:23;;;;;;;;;;;12.80;70.10;;;8.52;100.00;94142.81;4961348;28;20283;-51
2022/09/27 03:12:53;;;;;;;;;;;12.70;69.90;;;8.51;100.00;94145.72;4973863;28;19916;-46
2022/09/27 03:15:19;;;;;;;;;;;12.70;70.00;;;8.49;100.00;94143.38;4956942;28;19922;-51
2022/09/27 03:17:51;;;;;;;;;;;12.80;70.10;;;8.50;100.00;94147.59;4969417;28;19910;-48
2022/09/27 03:20:16;;;;;;;;;;;12.80;70.10;;;8.48;100.00;94144.44;4966865;28;20299;-47
2022/09/27 03:22:45;;;;;;;;;;;12.80;70.10;;;8.46;100.00;94137.81;4974097;28;19918;-48
2022/09/27 03:25:14;;;;;;;;;;;12.80;70.00;;;8.45;100.00;94137.03;4969727;28;19948;-45
2022/09/27 03:27:39;;;;;;;;;;;12.70;70.00;;;8.44;100.00;94146.09;4970397;28;19929;-46
2022/09/27 03:30:11;;;;;;;;;;;12.80;70.10;;;8.47;100.00;94142.09;4973718;28;19910;-49
2022/09/27 03:32:41;;;;;;;;;;;12.80;70.10;;;8.45;100.00;94139.69;4971888;28;19925;-48
2022/09/27 03:35:07;;;;;;;;;;;12.70;70.10;;;8.42;100.00;94156.19;4957152;28;19918;-48
2022/09/27 03:37:46;;;;;;;;;;;12.70;70.20;;;8.48;100.00;94168.31;4972713;28;19909;-45
2022/09/27 03:40:14;;;;;;;;;;;12.70;70.30;;;8.54;100.00;94167.19;4972042;28;19909;-48
2022/09/27 03:42:40;;;;;;;;;;;12.70;70.20;;;8.56;100.00;94156.28;4972021;28;19932;-52
2022/09/27 03:45:10;;;;;;;;;;;12.80;70.20;;;8.54;100.00;94161.88;4973056;28;20364;-46
2022/09/27 03:47:48;;;;;;;;;;;12.80;70.10;;;8.45;100.00;94170.75;4969316;28;20385;-47
2022/09/27 03:50:16;;;;;;;;;;;12.70;70.80;;;8.40;100.00;94170.81;4969102;28;19914;-48
2022/09/27 03:52:46;;;;;;;;;;;12.80;70.00;;;8.23;99.70;94169.41;4964434;28;19909;-50
2022/09/27 03:55:18;;;;;;;;;;;12.70;69.90;;;8.21;99.38;94171.56;4973400;28;20372;-50
2022/09/27 03:57:50;;;;;;;;;;;12.60;69.80;;;8.17;99.28;94170.53;4955800;28;19956;-45
2022/09/27 04:00:16;;;;;;;;;;;12.60;69.80;;;8.14;99.11;94176.41;4973531;28;19956;-46
2022/09/27 04:02:42;;;;;;;;;;;12.50;69.80;;;8.08;99.56;94172.22;4972216;28;19913;-46
2022/09/27 04:05:12;;;;;;;;;;;12.50;69.90;;;8.09;99.93;94177.25;4970645;28;19910;-45
2022/09/27 04:07:38;;;;;;;;;;;12.40;69.80;;;8.08;99.90;94181.00;4956111;28;19918;-48
2022/09/27 04:10:07;;;;;;;;;;;12.40;69.90;;;8.06;100.00;94177.03;4978931;28;19976;-48
2022/09/27 04:12:39;;;;;;;;;;;12.40;70.00;;;8.09;100.00;94182.56;4973244;28;19910;-48
2022/09/27 04:15:07;;;;;;;;;;;12.40;70.00;;;8.10;100.00;94173.53;4956424;28;19918;-48
2022/09/27 04:17:34;;;;;;;;;;;12.40;70.00;;;8.14;100.00;94175.59;4972038;28;19910;-50
2022/09/27 04:20:02;;;;;;;;;;;12.40;70.00;;;8.11;100.00;94182.25;4971983;28;19917;-51
2022/09/27 04:22:29;;;;;;;;;;;12.40;70.10;;;8.13;100.00;94180.13;4965932;28;19914;-50
2022/09/27 04:24:57;;;;;;;;;;;12.40;70.00;;;8.15;100.00;94178.00;4951703;28;20284;-44
2022/09/27 04:27:26;;;;;;;;;;;12.40;69.90;;;8.17;100.00;94178.47;4965198;28;19984;-48
2022/09/27 04:29:58;;;;;;;;;;;12.40;69.90;;;8.15;100.00;94179.84;4972100;28;20398;-48
2022/09/27 04:32:32;;;;;;;;;;;12.40;69.90;;;8.09;100.00;94179.91;4975120;28;20012;-47
2022/09/27 04:37:45;;;;;;;;;;;12.40;70.00;;;8.11;100.00;94175.09;4973097;28;19979;-50
2022/09/27 04:40:14;;;;;;;;;;;12.50;70.10;;;8.11;100.00;94183.06;4972220;28;19910;-45
2022/09/27 04:42:43;;;;;;;;;;;12.50;70.20;;;8.08;100.00;94183.66;4972680;28;19910;-48
2022/09/27 04:45:12;;;;;;;;;;;12.50;70.20;;;8.09;100.00;94174.59;4971917;28;19975;-47
2022/09/27 04:47:49;;;;;;;;;;;12.40;70.30;;;8.10;100.00;94183.34;4955534;28;19976;-45
2022/09/27 04:50:17;;;;;;;;;;;12.50;70.40;;;8.08;100.00;94186.28;4954490;28;19917;-45
2022/09/27 04:52:45;;;;;;;;;;;12.40;70.50;;;8.10;100.00;94188.66;4971093;28;19963;-48
2022/09/27 04:55:11;;;;;;;;;;;12.40;70.40;;;8.10;100.00;94189.44;4972845;28;19925;-45
2022/09/27 04:57:37;;;;;;;;;;;12.50;70.60;;;8.09;100.00;94187.88;4971714;28;20415;-49
2022/09/27 05:00:04;;;;;;;;;;;12.50;70.50;;;8.08;100.00;94194.25;4971314;28;19909;-47
2022/09/27 05:02:30;;;;;;;;;;;12.50;70.50;;;8.14;100.00;94188.88;4968773;28;20364;-46
2022/09/27 05:05:01;;;;;;;;;;;12.50;70.50;;;8.17;100.00;94188.31;4972018;28;19944;-47
2022/09/27 05:07:34;;;;;;;;;;;12.50;70.50;;;8.16;100.00;94202.66;4972314;28;20380;-45
2022/09/27 05:09:59;;;;;;;;;;;12.50;70.50;;;8.18;100.00;94197.84;4971096;28;20000;-52
2022/09/27 05:12:28;;;;;;;;;;;12.50;70.50;;;8.12;100.00;94199.78;4972190;28;20353;-47
2022/09/27 05:14:53;;;;;;;;;;;12.50;70.50;;;8.15;100.00;94193.09;4969681;28;19914;-47
2022/09/27 05:17:21;;;;;;;;;;;12.50;70.50;;;8.13;100.00;94197.91;4955310;28;20332;-48
2022/09/27 05:19:47;;;;;;;;;;;12.50;70.50;;;8.12;100.00;94207.72;4955385;28;19967;-48
2022/09/27 05:22:19;;;;;;;;;;;12.50;70.60;;;8.11;99.55;94208.78;4971847;28;20024;-46
2022/09/27 05:24:46;;;;;;;;;;;12.50;70.60;;;8.15;99.42;94211.66;4922656;28;19913;-46
2022/09/27 05:27:19;;;;;;;;;;;12.50;70.50;;;8.09;98.13;94213.59;4969210;28;20356;-45
2022/09/27 05:29:49;;;;;;;;;;;12.50;70.50;;;8.05;98.11;94226.63;4955051;28;19909;-45
2022/09/27 05:32:18;;;;;;;;;;;12.50;70.60;;;8.05;97.57;94236.44;4922684;28;19918;-45
2022/09/27 05:34:43;;;;;;;;;;;12.50;70.60;;;8.05;96.97;94237.25;4970314;28;19957;-46
2022/09/27 05:37:09;;;;;;;;;;;12.50;70.60;;;8.03;96.48;94242.03;4954486;28;19957;-46
2022/09/27 05:39:35;;;;;;;;;;;12.50;70.50;;;8.05;97.21;94255.81;4953512;28;19960;-46
2022/09/27 05:42:03;;;;;;;;;;;12.50;70.50;;;8.04;97.08;94250.78;4971831;28;20005;-46
2022/09/27 05:44:30;;;;;;;;;;;12.50;70.50;;;7.98;96.52;94251.88;4953276;28;19916;-47
2022/09/27 05:46:55;;;;;;;;;;;12.60;70.40;;;8.01;96.70;94261.94;4978975;28;19964;-50
2022/09/27 05:49:25;;;;;;;;;;;12.50;70.30;;;8.03;97.07;94262.47;4954567;28;19997;-46
2022/09/27 05:51:51;;;;;;;;;;;12.50;70.30;;;8.01;95.81;94269.91;4969452;28;19909;-46
2022/09/27 05:54:17;;;;;;;;;;;12.60;70.20;;;7.97;95.41;94277.63;4954042;28;19914;-46
2022/09/27 05:56:42;;;;;;;;;;;12.50;70.10;;;7.98;95.04;94275.75;4969776;28;19914;-46
2022/09/27 05:59:08;;;;;;;;;;;12.60;70.10;;;7.99;93.71;94274.69;4954566;28;19914;-49
2022/09/27 06:01:36;;;;;;;;;;;12.60;70.00;;;7.99;91.51;94264.06;4922512;28;20624;-45
2022/09/27 06:04:08;;;;;;;;;;;12.60;69.80;;;8.10;92.28;94281.47;4968968;28;20004;-46
2022/09/27 06:06:37;;;;;;;;;;;12.70;69.70;;;8.13;91.34;94280.91;4971475;28;19910;-47
2022/09/27 06:09:15;;;;;;;;;;;12.80;69.60;;;8.14;90.74;94276.41;4971111;28;20008;-49
2022/09/27 06:11:45;;;;;;;;;;;12.80;69.50;;;8.19;90.80;94286.97;4942269;28;19918;-48
2022/09/27 06:14:12;;;;;;;;;;;12.80;69.40;;;8.20;89.69;94286.69;4970210;28;19924;-47
2022/09/27 06:16:38;;;;;;;;;;;12.90;69.20;;;8.24;90.86;94295.69;4954332;28;20515;-46
2022/09/27 06:19:04;;;;;;;;;;;13.00;69.20;;;8.29;89.94;94302.78;4938464;28;19917;-46
2022/09/27 06:21:30;;;;;;;;;;;13.00;69.10;;;8.28;92.03;94296.69;4970331;28;19909;-47
2022/09/27 06:23:58;;;;;;;;;;;13.00;68.90;;;8.13;92.90;94294.19;4971297;28;19910;-47
2022/09/27 06:26:36;;;;;;;;;;;13.00;68.70;;;8.12;94.24;94297.91;4970082;28;20289;-51
2022/09/27 06:29:02;;;;;;;;;;;12.90;68.60;;;8.02;94.86;94305.94;4971299;28;19924;-47
2022/09/27 06:31:43;;;;;;;;;;;12.80;68.60;;;8.07;95.90;94308.56;4954118;28;19913;-48
2022/09/27 06:34:11;;;;;;;;;;;12.80;68.60;;;8.03;95.64;94305.69;4968842;28;20697;-50
2022/09/27 06:36:51;;;;;;;;;;;12.80;68.70;;;8.00;96.03;94295.63;4970104;28;20331;-48
2022/09/27 06:39:23;;;;;;;;;;;12.80;68.70;;;7.98;96.29;94300.41;4979051;28;19940;-49
2022/09/27 06:41:56;;;;;;;;;;;12.80;68.70;;;7.98;96.89;94297.75;4969967;28;20411;-48
2022/09/27 06:44:23;;;;;;;;;;;12.80;68.60;;;7.87;96.47;94306.88;4969724;28;20001;-50
2022/09/27 06:47:01;;;;;;;;;;;12.80;68.60;;;7.83;96.07;94314.59;4971461;28;19917;-46
2022/09/27 06:49:30;;;;;;;;;;;12.80;68.60;;;7.92;95.35;94317.44;4956330;28;19914;-47
2022/09/27 06:51:56;;;;;;;;;;;12.80;68.50;;;7.95;94.83;94316.88;4973048;28;19910;-46
2022/09/27 06:54:25;;;;;;;;;;;12.90;68.50;;;8.08;94.62;94321.56;4972422;28;19964;-47
2022/09/27 06:56:50;;;;;;;;;;;13.00;68.40;;;8.06;93.83;94323.69;4972082;28;19913;-49
2022/09/27 07:02:03;;;;;;;;;;;13.00;68.30;;;8.17;94.53;94336.84;4969117;28;20337;-47
2022/09/27 07:04:31;;;;;;;;;;;13.10;68.40;;;8.16;93.37;94332.63;4971992;28;20004;-47
2022/09/27 07:06:59;;;;;;;;;;;13.10;68.40;;;8.16;93.54;94336.06;4961714;28;19921;-46
2022/09/27 07:09:27;;;;;;;;;;;13.10;68.30;;;8.01;92.54;94328.22;4969334;28;19953;-50
2022/09/27 07:11:54;;;;;;;;;;;13.10;68.10;;;8.03;92.59;94345.47;4966621;28;19914;-47
2022/09/27 07:14:20;;;;;;;;;;;13.10;68.00;;;8.07;91.94;94343.81;4952992;28;20001;-48
2022/09/27 07:16:46;;;;;;;;;;;13.10;67.90;;;8.07;89.86;94329.78;4961366;28;20358;-51
2022/09/27 07:19:13;;;;;;;;;;;13.10;67.80;;;8.13;90.27;94339.28;4960006;28;19949;-46
2022/09/27 07:21:39;;;;;;;;;;;13.20;67.70;;;8.20;90.95;94353.00;4962425;28;20037;-46
2022/09/27 07:24:05;;;;;;;;;;;13.30;67.70;;;8.26;91.18;94343.13;4961329;28;19916;-50
2022/09/27 07:26:31;;;;;;;;;;;13.30;67.60;;;8.20;90.29;94354.84;4958485;28;20008;-46
2022/09/27 07:28:57;;;;;;;;;;;13.20;67.50;;;8.22;89.93;94356.16;4959122;28;19928;-46
2022/09/27 07:31:23;;;;;;;;;;;13.20;67.50;;;8.23;90.67;94364.91;4956742;28;19944;-49
2022/09/27 07:33:49;;;;;;;;;;;13.20;67.60;;;8.20;89.63;94374.22;4969251;28;19997;-49
2022/09/27 07:36:15;;;;;;;;;;;13.20;67.70;;;8.25;89.63;94379.50;4954852;28;19914;-47
2022/09/27 07:38:41;;;;;;;;;;;13.10;67.60;;;8.25;89.22;94382.16;4961514;28;20388;-47
2022/09/27 07:41:12;;;;;;;;;;;13.20;67.70;;;8.34;89.71;94377.81;4954262;28;19936;-51
2022/09/27 07:43:37;;;;;;;;;;;13.30;67.70;;;8.26;85.17;94370.44;4947357;28;19914;-52
2022/09/27 07:46:03;;;;;;;;;;;13.40;67.50;;;8.41;87.20;94376.72;4969425;28;19933;-50
2022/09/27 07:48:29;;;;;;;;;;;13.60;67.20;;;8.50;84.90;94383.81;4953169;28;20008;-48
2022/09/27 07:50:55;;;;;;;;;;;13.70;67.10;;;8.49;84.18;94384.88;4969901;28;19909;-49
2022/09/27 07:53:22;;;;;;;;;;;13.80;66.80;;;8.43;84.56;94401.94;4969973;28;19910;-47
2022/09/27 07:55:52;;;;;;;;;;;13.70;66.40;;;8.43;84.60;94411.72;4963457;28;20005;-53
2022/09/27 07:58:19;;;;;;;;;;;13.70;66.20;;;8.51;85.59;94397.84;4969609;28;20008;-51
2022/09/27 08:00:45;;;;;;;;;;;13.70;66.30;;;8.56;84.72;94406.56;4964500;28;19916;-51
2022/09/27 08:03:14;;;;;;;;;;;13.70;66.30;;;8.57;83.52;94416.09;4964373;28;20364;-51
2022/09/27 08:05:46;;;;;;;;;;;13.70;66.20;;;8.60;82.73;94413.97;4965481;28;20284;-47
2022/09/27 08:08:13;;;;;;;;;;;13.70;66.30;;;8.57;82.52;94410.81;4954974;28;19929;-51
2022/09/27 08:10:47;;;;;;;;;;;13.70;66.10;;;8.54;83.02;94426.50;4939364;28;20088;-52
2022/09/27 08:13:18;;;;;;;;;;;13.70;66.00;;;8.52;81.93;94415.34;4973179;28;19910;-47
2022/09/27 08:15:44;;;;;;;;;;;13.70;65.80;;;8.54;82.35;94426.50;4972101;28;19939;-51
2022/09/27 08:18:10;;;;;;;;;;;13.60;65.80;;;8.66;82.05;94426.91;4955564;28;19909;-47
2022/09/27 08:20:36;;;;;;;;;;;13.70;65.80;;;8.66;81.02;94424.25;4973213;28;19949;-49
2022/09/27 08:23:05;;;;;;;;;;;13.70;65.80;;;8.63;81.15;94432.00;4955511;28;20376;-49
2022/09/27 08:25:31;;;;;;;;;;;13.80;65.70;;;8.63;81.60;94443.41;4971785;28;19953;-47
2022/09/27 08:28:00;;;;;;;;;;;13.90;65.30;;;8.65;79.38;94427.19;4969510;23;19945;-48
2022/09/27 08:30:31;;;;;;;;;;;14.00;65.20;;;8.75;80.86;94433.19;5001843;28;19922;-48
2022/09/27 08:33:09;;;;;;;;;;;14.00;64.70;;;8.82;80.55;94437.41;4994930;28;20357;-52
2022/09/27 08:35:37;;;;;;;;;;;14.00;64.80;;;8.85;79.52;94437.63;4992329;28;19971;-49
2022/09/27 08:38:08;;;;;;;;;;;14.00;64.80;;;8.94;79.06;94438.59;4988942;28;20397;-46
2022/09/27 08:41:11;;;;;;;;;;;14.20;64.70;;;9.09;77.80;94432.34;4988119;28;19918;-48
2022/09/27 08:44:25;;;;;;;;;;;14.40;64.40;;;9.33;79.55;94447.47;4971644;28;19909;-51
2022/09/27 08:47:11;;;;;;;;;;;14.60;64.00;;;9.47;77.40;94446.50;4990725;28;19910;-49
2022/09/27 08:49:58;;;;;;;;;;;14.80;63.90;;;9.48;75.02;94434.78;4991624;28;19909;-49
2022/09/27 08:52:54;;;;;;;;;;;14.90;63.70;;;9.60;75.58;94447.66;4972661;28;20372;-48
2022/09/27 08:55:52;;;;;;;;;;;15.00;63.30;;;9.65;74.92;94442.28;4987391;28;19921;-50
2022/09/27 08:58:43;;;;;;;;;;;15.10;63.30;;;10.15;76.42;94447.97;4974489;28;19921;-48
2022/09/27 09:01:17;;;;;;;;;;;15.60;63.00;;;10.59;74.10;94438.00;4972304;28;20367;-48
2022/09/27 09:03:54;;;;;;;;;;;16.20;63.00;;;10.84;71.76;94442.09;4963249;28;19956;-52
2022/09/27 09:06:58;;;;;;;;;;;16.50;62.60;;;11.05;71.01;94443.31;4971212;28;20000;-46
2022/09/27 09:09:30;;;;;;;;;;;16.80;62.30;;;10.98;69.88;94431.47;4981615;28;19909;-53
2022/09/27 09:16:14;;;;;;;;;;;17.00;61.20;;;10.77;69.86;94447.03;4982206;28;19960;-48
2022/09/27 09:19:39;;;;;;;;;;;16.90;60.40;;;10.76;70.21;94438.25;4980504;28;19963;-51
2022/09/27 09:22:34;;;;;;;;;;;16.80;59.90;;;10.94;70.78;94441.94;4989386;28;19963;-51
2022/09/27 09:25:24;;;;;;;;;;;16.70;60.00;;;10.93;69.36;94439.56;4991211;28;19916;-48
2022/09/27 09:28:08;;;;;;;;;;;16.70;60.00;;;10.84;71.43;94440.25;4985911;28;19917;-48
2022/09/27 09:31:18;;;;;;;;;;;16.70;59.90;;;10.78;68.55;94429.94;4978266;28;19920;-46
2022/09/27 09:33:51;;;;;;;;;;;16.70;59.80;;;10.83;67.54;94422.66;4987997;28;19917;-47
2022/09/27 09:36:24;;;;;;;;;;;16.90;59.50;;;10.98;69.69;94421.59;4978734;28;19909;-49
2022/09/27 09:39:10;;;;;;;;;;;17.10;59.00;;;11.16;67.94;94425.28;4979446;28;19954;-48
2022/09/27 09:41:48;;;;;;;;;;;17.40;58.70;;;11.47;67.79;94428.13;4986326;28;19909;-48
2022/09/27 09:44:52;;;;;;;;;;;17.70;58.60;;;11.76;65.89;94422.44;4977302;28;20501;-48
2022/09/27 09:47:38;;;;;;;;;;;18.00;58.70;;;11.74;66.47;94423.84;4953418;28;19917;-49
2022/09/27 09:50:44;;;;;;;;;;;18.20;57.90;;;11.78;65.62;94406.94;4990282;28;19921;-49
2022/09/27 09:53:51;;;;;;;;;;;18.40;57.50;;;11.88;64.63;94413.97;4991004;28;19914;-49
2022/09/27 09:56:41;;;;;;;;;;;18.50;57.00;;;12.13;65.00;94409.94;5005282;28;19921;-49
2022/09/27 09:59:34;;;;;;;;;;;18.60;56.70;;;12.16;63.96;94409.34;4979887;28;20338;-51
2022/09/27 10:02:35;;;;;;;;;;;18.80;56.50;;;12.04;63.87;94401.84;4988811;28;19975;-48
2022/09/27 10:05:04;;;;;;;;;;;18.90;56.00;;;12.16;64.35;94397.84;4972051;28;19910;-49
2022/09/27 10:07:36;;;;;;;;;;;18.90;55.60;;;12.45;63.45;94395.53;4981019;28;19936;-47
2022/09/27 10:10:06;;;;;;;;;;;19.00;55.70;;;12.56;62.59;94405.97;4972528;28;19921;-49
2022/09/27 10:12:34;;;;;;;;;;;19.20;55.60;;;12.46;62.26;94396.34;4986458;28;19917;-47
2022/09/27 10:15:05;;;;;;;;;;;19.20;55.00;;;12.32;62.53;94400.97;4985550;28;19921;-50
2022/09/27 10:17:49;;;;;;;;;;;19.20;54.40;;;12.35;61.88;94392.34;4984824;28;20002;-47
2022/09/27 10:20:42;;;;;;;;;;;19.30;54.10;;;12.46;61.78;94399.78;4963196;28;20004;-49
2022/09/27 10:23:20;;;;;;;;;;;19.50;53.50;;;12.46;60.78;94399.00;4932020;28;19917;-53
2022/09/27 10:25:56;;;;;;;;;;;19.50;53.20;;;12.49;61.71;94391.16;4992986;28;19916;-44
2022/09/27 10:28:44;;;;;;;;;;;19.60;52.90;;;12.27;63.29;94393.84;4973547;28;19922;-46
2022/09/27 10:31:21;;;;;;;;;;;19.50;52.30;;;12.51;63.22;94388.22;4993311;28;19909;-48
2022/09/27 10:34:05;;;;;;;;;;;19.50;52.30;;;12.43;61.23;94392.38;4992456;28;19920;-48
2022/09/27 10:36:37;;;;;;;;;;;19.50;52.20;;;12.30;62.02;94387.91;4993091;28;19913;-47
2022/09/27 10:39:19;;;;;;;;;;;19.40;51.90;;;12.27;62.05;94385.84;4992963;28;19910;-47
2022/09/27 10:41:51;;;;;;;;;;;19.20;51.90;;;12.17;61.51;94386.88;4988430;28;19925;-49
2022/09/27 10:44:36;;;;;;;;;;;19.10;51.90;;;11.95;60.85;94387.66;4981642;28;19909;-53
2022/09/27 10:47:15;;;;;;;;;;;18.90;51.70;;;11.78;62.64;94372.25;4990688;28;19910;-50
2022/09/27 10:49:44;;;;;;;;;;;18.50;51.60;;;11.50;63.60;94394.72;4983213;28;19932;-51
2022/09/27 10:52:22;;;;;;;;;;;18.10;51.10;;;11.27;68.35;94420.53;4988049;28;20329;-50
2022/09/27 10:55:06;;;;;;;;;;;17.80;51.50;;;10.51;72.82;94418.16;4973886;28;19913;-47
2022/09/27 10:57:33;;;;;;;;;;;17.30;51.70;;;10.03;76.51;94428.19;4976391;28;19928;-50
2022/09/27 11:00:06;;;;;;;;;;;16.70;52.00;;;9.67;78.63;94436.69;4957255;28;19918;-48
2022/09/27 11:02:38;;;;;;;;;;;16.20;52.50;;;9.51;80.73;94430.75;4976842;28;19943;-52
2022/09/27 11:05:22;;;;;;;;;;;15.80;53.00;;;9.30;82.11;94424.13;4988534;28;19910;-52
2022/09/27 11:07:55;;;;;;;;;;;15.60;53.60;;;9.32;82.73;94428.06;4974720;28;19917;-48
2022/09/27 11:10:34;;;;;;;;;;;15.40;54.00;;;9.12;83.05;94429.13;4993322;28;20396;-47
2022/09/27 11:13:19;;;;;;;;;;;15.20;55.00;;;8.97;84.16;94429.28;4992731;28;19946;-48
2022/09/27 11:16:10;;;;;;;;;;;15.00;54.80;;;8.96;84.97;94427.66;4981092;28;19913;-53
2022/09/27 11:19:01;;;;;;;;;;;14.90;55.80;;;8.92;85.79;94427.44;4993805;28;19955;-47
2022/09/27 11:22:10;;;;;;;;;;;14.90;55.50;;;9.09;85.93;94427.03;4983844;28;20384;-48
2022/09/27 11:24:47;;;;;;;;;;;14.90;55.70;;;9.18;87.26;94432.47;4973001;28;19920;-52
2022/09/27 11:27:55;;;;;;;;;;;14.90;56.00;;;9.23;85.14;94440.41;4985380;28;19913;-52
2022/09/27 11:30:23;;;;;;;;;;;15.00;56.30;;;9.19;84.51;94440.19;4972806;28;19918;-47
2022/09/27 11:33:17;;;;;;;;;;;14.90;56.40;;;9.23;85.92;94437.75;4962649;28;19909;-43
2022/09/27 11:36:35;;;;;;;;;;;14.90;56.60;;;9.45;85.36;94431.91;4991716;28;20296;-49
2022/09/27 11:40:10;;;;;;;;;;;15.20;56.70;;;9.64;84.41;94421.28;4990936;28;19913;-48
2022/09/27 11:43:26;;;;;;;;;;;15.50;56.70;;;9.88;82.14;94406.06;4993522;28;19956;-50
2022/09/27 11:46:20;;;;;;;;;;;16.00;56.50;;;10.23;81.06;94397.84;4963119;28;19914;-49
2022/09/27 11:49:08;;;;;;;;;;;16.40;56.40;;;10.35;78.35;94391.00;4981211;28;19959;-50
2022/09/27 11:52:19;;;;;;;;;;;16.70;56.20;;;10.48;75.74;94384.13;4990408;28;19910;-52
2022/09/27 11:55:21;;;;;;;;;;;16.90;55.90;;;10.72;76.40;94385.84;4992024;28;20376;-49
2022/09/27 11:58:08;;;;;;;;;;;17.10;55.80;;;10.87;74.75;94389.03;4990600;28;19909;-53
2022/09/27 12:01:13;;;;;;;;;;;17.30;55.80;;;10.99;74.82;94383.22;4972331;28;20008;-50
2022/09/27 12:04:29;;;;;;;;;;;17.40;55.60;;;11.12;74.10;94394.94;4983787;28;20541;-51
2022/09/27 12:07:42;;;;;;;;;;;17.40;55.50;;;11.26;72.64;94394.97;4950846;28;19915;-54
2022/09/27 12:10:15;;;;;;;;;;;17.60;55.60;;;11.25;72.78;94383.53;4967190;28;19944;-49
2022/09/27 12:12:50;;;;;;;;;;;17.70;55.30;;;11.51;71.96;94381.09;4972160;28;20383;-48
2022/09/27 12:15:37;;;;;;;;;;;18.00;55.20;;;11.61;71.62;94384.66;4965461;28;19961;-49
2022/09/27 12:18:38;;;;;;;;;;;18.30;54.70;;;12.19;71.22;94374.03;4985331;28;20355;-49
2022/09/27 12:21:08;;;;;;;;;;;19.10;54.30;;;12.37;67.81;94374.13;4980979;28;19909;-51